sensor_id;sensor_type;location;lat;lon;timestamp;temperature;humidity
7159;DHT22;63175;52.374;13.132;2022-11-14T00:00:23;7.40;99.90
7159;DHT22;63175;52.374;13.132;2022-11-14T00:02:50;7.40;99.90
7159;DHT22;63175;52.374;13.132;2022-11-14T00:05:17;7.30;99.90
7159;DHT22;63175;52.374;13.132;2022-11-14T00:07:44;7.30;99.90
7159;DHT22;63175;52.374;13.132;2022-11-14T00:10:12;7.30;99.90
7159;DHT22;63175;52.374;13.132;2022-11-14T00:12:40;7.30;99.90
7159;DHT22;63175;52.374;13.132;2022-11-14T00:15:08;7.20;99.90
7159;DHT22;63175;52.374;13.132;2022-11-14T00:17:35;7.20;99.90
7159;DHT22;63175;52.374;13.132;2022-11-14T00:20:03;7.20;99.90
7159;DHT22;63175;52.374;13.132;2022-11-14T00:22:31;7.20;99.90
7159;DHT22;63175;52.374;13.132;2022-11-14T00:24:58;7.20;99.90
7159;DHT22;63175;52.374;13.132;2022-11-14T00:27:25;7.10;99.90
7159;DHT22;63175;52.374;13.132;2022-11-14T00:29:53;7.10;99.90
7159;DHT22;63175;52.374;13.132;2022-11-14T00:32:20;7.20;99.90
7159;DHT22;63175;52.374;13.132;2022-11-14T00:34:47;7.10;99.90
7159;DHT22;63175;52.374;13.132;2022-11-14T00:37:14;7.10;99.90
7159;DHT22;63175;52.374;13.132;2022-11-14T00:39:41;7.10;99.90
7159;DHT22;63175;52.374;13.132;2022-11-14T00:42:07;7.10;99.90
7159;DHT22;63175;52.374;13.132;2022-11-14T00:44:34;7.10;99.90
7159;DHT22;63175;52.374;13.132;2022-11-14T00:47:02;7.10;99.90
7159;DHT22;63175;52.374;13.132;2022-11-14T00:49:29;7.10;99.90
7159;DHT22;63175;52.374;13.132;2022-11-14T00:51:56;7.10;99.90
7159;DHT22;63175;52.374;13.132;2022-11-14T00:54:23;7.00;99.90
7159;DHT22;63175;52.374;13.132;2022-11-14T00:56:51;7.00;99.90
7159;DHT22;63175;52.374;13.132;2022-11-14T00:59:18;7.00;99.90
7159;DHT22;63175;52.374;13.132;2022-11-14T01:01:44;7.00;99.90
7159;DHT22;63175;52.374;13.132;2022-11-14T01:04:12;7.00;99.90
7159;DHT22;63175;52.374;13.132;2022-11-14T01:06:39;7.00;99.90
7159;DHT22;63175;52.374;13.132;2022-11-14T01:09:07;7.00;99.90
7159;DHT22;63175;52.374;13.132;2022-11-14T01:11:34;7.00;99.90
7159;DHT22;63175;52.374;13.132;2022-11-14T01:14:00;7.00;99.90
7159;DHT22;63175;52.374;13.132;2022-11-14T01:16:27;7.00;99.90
7159;DHT22;63175;52.374;13.132;2022-11-14T01:18:54;7.00;99.90
7159;DHT22;63175;52.374;13.132;2022-11-14T01:21:22;7.00;99.90
7159;DHT22;63175;52.374;13.132;2022-11-14T01:23:49;7.00;99.90
7159;DHT22;63175;52.374;13.132;2022-11-14T01:26:16;7.00;99.90
7159;DHT22;63175;52.374;13.132;2022-11-14T01:28:43;7.00;99.90
7159;DHT22;63175;52.374;13.132;2022-11-14T01:31:11;7.00;99.90
7159;DHT22;63175;52.374;13.132;2022-11-14T01:33:38;7.00;99.90
7159;DHT22;63175;52.374;13.132;2022-11-14T01:36:06;6.90;99.90
7159;DHT22;63175;52.374;13.132;2022-11-14T01:38:35;7.00;99.90
7159;DHT22;63175;52.374;13.132;2022-11-14T01:41:03;6.90;99.90
7159;DHT22;63175;52.374;13.132;2022-11-14T01:43:32;6.90;99.90
7159;DHT22;63175;52.374;13.132;2022-11-14T01:46:01;6.90;99.90
7159;DHT22;63175;52.374;13.132;2022-11-14T01:48:37;6.90;99.90
7159;DHT22;63175;52.374;13.132;2022-11-14T01:51:25;6.90;99.90
7159;DHT22;63175;52.374;13.132;2022-11-14T01:53:57;6.90;99.90
7159;DHT22;63175;52.374;13.132;2022-11-14T01:56:28;6.90;99.90
7159;DHT22;63175;52.374;13.132;2022-11-14T01:58:59;6.90;99.90
7159;DHT22;63175;52.374;13.132;2022-11-14T02:01:30;6.90;99.90
7159;DHT22;63175;52.374;13.132;2022-11-14T02:03:59;6.90;99.90
7159;DHT22;63175;52.374;13.132;2022-11-14T02:06:29;6.90;99.90
7159;DHT22;63175;52.374;13.132;2022-11-14T02:08:59;6.90;99.90
7159;DHT22;63175;52.374;13.132;2022-11-14T02:11:29;6.90;99.90
7159;DHT22;63175;52.374;13.132;2022-11-14T02:13:57;6.90;99.90
7159;DHT22;63175;52.374;13.132;2022-11-14T02:16:24;6.90;99.90
7159;DHT22;63175;52.374;13.132;2022-11-14T02:18:51;6.90;99.90
7159;DHT22;63175;52.374;13.132;2022-11-14T02:21:20;6.90;99.90
7159;DHT22;63175;52.374;13.132;2022-11-14T02:23:46;6.90;99.90
7159;DHT22;63175;52.374;13.132;2022-11-14T02:26:16;6.90;99.90
7159;DHT22;63175;52.374;13.132;2022-11-14T02:28:44;6.90;99.90
7159;DHT22;63175;52.374;13.132;2022-11-14T02:31:11;6.90;99.90
7159;DHT22;63175;52.374;13.132;2022-11-14T02:33:38;7.00;99.90
7159;DHT22;63175;52.374;13.132;2022-11-14T02:36:05;7.00;99.90
7159;DHT22;63175;52.374;13.132;2022-11-14T02:38:34;6.90;99.90
7159;DHT22;63175;52.374;13.132;2022-11-14T02:41:01;7.00;99.90
7159;DHT22;63175;52.374;13.132;2022-11-14T02:43:28;7.00;99.90
7159;DHT22;63175;52.374;13.132;2022-11-14T02:45:55;7.00;99.90
7159;DHT22;63175;52.374;13.132;2022-11-14T02:48:22;7.00;99.90
7159;DHT22;63175;52.374;13.132;2022-11-14T02:50:49;7.00;99.90
7159;DHT22;63175;52.374;13.132;2022-11-14T02:53:16;7.00;99.90
7159;DHT22;63175;52.374;13.132;2022-11-14T02:55:44;7.00;99.90
7159;DHT22;63175;52.374;13.132;2022-11-14T02:58:11;7.00;99.90
7159;DHT22;63175;52.374;13.132;2022-11-14T03:00:38;7.00;99.90
7159;DHT22;63175;52.374;13.132;2022-11-14T03:03:04;7.00;99.90
7159;DHT22;63175;52.374;13.132;2022-11-14T03:05:31;7.10;99.90
7159;DHT22;63175;52.374;13.132;2022-11-14T03:07:58;7.10;99.90
7159;DHT22;63175;52.374;13.132;2022-11-14T03:10:25;7.10;99.90
7159;DHT22;63175;52.374;13.132;2022-11-14T03:12:54;7.10;99.90
7159;DHT22;63175;52.374;13.132;2022-11-14T03:15:22;7.10;99.90
7159;DHT22;63175;52.374;13.132;2022-11-14T03:17:49;7.10;99.90
7159;DHT22;63175;52.374;13.132;2022-11-14T03:20:17;7.10;99.90
7159;DHT22;63175;52.374;13.132;2022-11-14T03:22:44;7.10;99.90
7159;DHT22;63175;52.374;13.132;2022-11-14T03:25:11;7.10;99.90
7159;DHT22;63175;52.374;13.132;2022-11-14T03:27:37;7.10;99.90
7159;DHT22;63175;52.374;13.132;2022-11-14T03:30:07;7.10;99.90
7159;DHT22;63175;52.374;13.132;2022-11-14T03:32:34;7.10;99.90
7159;DHT22;63175;52.374;13.132;2022-11-14T03:35:01;7.20;99.90
7159;DHT22;63175;52.374;13.132;2022-11-14T03:37:27;7.20;99.90
7159;DHT22;63175;52.374;13.132;2022-11-14T03:39:54;7.20;99.90
7159;DHT22;63175;52.374;13.132;2022-11-14T03:42:21;7.20;99.90
7159;DHT22;63175;52.374;13.132;2022-11-14T03:44:48;7.20;99.90
7159;DHT22;63175;52.374;13.132;2022-11-14T03:47:16;7.20;99.90
7159;DHT22;63175;52.374;13.132;2022-11-14T03:49:43;7.20;99.90
7159;DHT22;63175;52.374;13.132;2022-11-14T03:52:10;7.20;99.90
7159;DHT22;63175;52.374;13.132;2022-11-14T03:54:37;7.20;99.90
7159;DHT22;63175;52.374;13.132;2022-11-14T03:57:04;7.20;99.90
7159;DHT22;63175;52.374;13.132;2022-11-14T03:59:32;7.20;99.90
7159;DHT22;63175;52.374;13.132;2022-11-14T04:01:58;7.20;99.90
7159;DHT22;63175;52.374;13.132;2022-11-14T04:04:27;7.20;99.90
7159;DHT22;63175;52.374;13.132;2022-11-14T04:06:54;7.20;99.90
7159;DHT22;63175;52.374;13.132;2022-11-14T04:09:21;7.10;99.90
7159;DHT22;63175;52.374;13.132;2022-11-14T04:11:47;7.20;99.90
7159;DHT22;63175;52.374;13.132;2022-11-14T04:14:14;7.20;99.90
7159;DHT22;63175;52.374;13.132;2022-11-14T04:16:41;7.20;99.90
7159;DHT22;63175;52.374;13.132;2022-11-14T04:19:08;7.20;99.90
7159;DHT22;63175;52.374;13.132;2022-11-14T04:21:36;7.20;99.90
7159;DHT22;63175;52.374;13.132;2022-11-14T04:24:03;7.20;99.90
7159;DHT22;63175;52.374;13.132;2022-11-14T04:26:30;7.20;99.90
7159;DHT22;63175;52.374;13.132;2022-11-14T04:28:57;7.10;99.90
7159;DHT22;63175;52.374;13.132;2022-11-14T04:31:24;7.10;99.90
7159;DHT22;63175;52.374;13.132;2022-11-14T04:33:51;7.10;99.90
7159;DHT22;63175;52.374;13.132;2022-11-14T04:36:17;7.10;99.90
7159;DHT22;63175;52.374;13.132;2022-11-14T04:38:46;7.10;99.90
7159;DHT22;63175;52.374;13.132;2022-11-14T04:41:12;7.10;99.90
7159;DHT22;63175;52.374;13.132;2022-11-14T04:43:39;7.10;99.90
7159;DHT22;63175;52.374;13.132;2022-11-14T04:46:06;7.10;99.90
7159;DHT22;63175;52.374;13.132;2022-11-14T04:48:33;7.10;99.90
7159;DHT22;63175;52.374;13.132;2022-11-14T04:51:00;7.10;99.90
7159;DHT22;63175;52.374;13.132;2022-11-14T04:53:26;7.10;99.90
7159;DHT22;63175;52.374;13.132;2022-11-14T04:55:55;7.10;99.90
7159;DHT22;63175;52.374;13.132;2022-11-14T04:58:22;7.10;99.90
7159;DHT22;63175;52.374;13.132;2022-11-14T05:00:48;7.10;99.90
7159;DHT22;63175;52.374;13.132;2022-11-14T05:03:15;7.10;99.90
7159;DHT22;63175;52.374;13.132;2022-11-14T05:05:42;7.10;99.90
7159;DHT22;63175;52.374;13.132;2022-11-14T05:08:09;7.10;99.90
7159;DHT22;63175;52.374;13.132;2022-11-14T05:10:36;7.10;99.90
7159;DHT22;63175;52.374;13.132;2022-11-14T05:13:04;7.10;99.90
7159;DHT22;63175;52.374;13.132;2022-11-14T05:15:31;7.10;99.90
7159;DHT22;63175;52.374;13.132;2022-11-14T05:17:58;7.10;99.90
7159;DHT22;63175;52.374;13.132;2022-11-14T05:20:25;7.10;99.90
7159;DHT22;63175;52.374;13.132;2022-11-14T05:22:52;7.10;99.90
7159;DHT22;63175;52.374;13.132;2022-11-14T05:25:19;7.10;99.90
7159;DHT22;63175;52.374;13.132;2022-11-14T05:27:46;7.10;99.90
7159;DHT22;63175;52.374;13.132;2022-11-14T05:30:15;7.00;99.90
7159;DHT22;63175;52.374;13.132;2022-11-14T05:32:42;7.00;99.90
7159;DHT22;63175;52.374;13.132;2022-11-14T05:35:09;7.00;99.90
7159;DHT22;63175;52.374;13.132;2022-11-14T05:37:36;7.00;99.90
7159;DHT22;63175;52.374;13.132;2022-11-14T05:40:04;7.00;99.90
7159;DHT22;63175;52.374;13.132;2022-11-14T05:42:31;7.00;99.90
7159;DHT22;63175;52.374;13.132;2022-11-14T05:44:58;7.00;99.90
7159;DHT22;63175;52.374;13.132;2022-11-14T05:47:26;6.90;99.90
7159;DHT22;63175;52.374;13.132;2022-11-14T05:49:53;6.90;99.90
7159;DHT22;63175;52.374;13.132;2022-11-14T05:52:20;6.90;99.90
7159;DHT22;63175;52.374;13.132;2022-11-14T05:54:47;6.90;99.90
7159;DHT22;63175;52.374;13.132;2022-11-14T05:57:14;6.80;99.90
7159;DHT22;63175;52.374;13.132;2022-11-14T05:59:41;6.80;99.90
7159;DHT22;63175;52.374;13.132;2022-11-14T06:02:07;6.80;99.90
7159;DHT22;63175;52.374;13.132;2022-11-14T06:04:36;6.80;99.90
7159;DHT22;63175;52.374;13.132;2022-11-14T06:07:03;6.80;99.90
7159;DHT22;63175;52.374;13.132;2022-11-14T06:09:30;6.80;99.90
7159;DHT22;63175;52.374;13.132;2022-11-14T06:11:57;6.80;99.90
7159;DHT22;63175;52.374;13.132;2022-11-14T06:14:24;6.80;99.90
7159;DHT22;63175;52.374;13.132;2022-11-14T06:16:50;6.80;99.90
7159;DHT22;63175;52.374;13.132;2022-11-14T06:19:17;6.80;99.90
7159;DHT22;63175;52.374;13.132;2022-11-14T06:21:47;6.70;99.90
7159;DHT22;63175;52.374;13.132;2022-11-14T06:24:14;6.70;99.90
7159;DHT22;63175;52.374;13.132;2022-11-14T06:26:41;6.70;99.90
7159;DHT22;63175;52.374;13.132;2022-11-14T06:29:09;6.70;99.90
7159;DHT22;63175;52.374;13.132;2022-11-14T06:31:36;6.70;99.90
7159;DHT22;63175;52.374;13.132;2022-11-14T06:34:04;6.70;99.90
7159;DHT22;63175;52.374;13.132;2022-11-14T06:36:30;6.70;99.90
7159;DHT22;63175;52.374;13.132;2022-11-14T06:38:59;6.70;99.90
7159;DHT22;63175;52.374;13.132;2022-11-14T06:41:26;6.70;99.90
7159;DHT22;63175;52.374;13.132;2022-11-14T06:43:52;6.70;99.90
7159;DHT22;63175;52.374;13.132;2022-11-14T06:46:20;6.70;99.90
7159;DHT22;63175;52.374;13.132;2022-11-14T06:48:48;6.60;99.90
7159;DHT22;63175;52.374;13.132;2022-11-14T06:51:16;6.60;99.90
7159;DHT22;63175;52.374;13.132;2022-11-14T06:53:43;6.60;99.90
7159;DHT22;63175;52.374;13.132;2022-11-14T06:56:12;6.70;99.90
7159;DHT22;63175;52.374;13.132;2022-11-14T06:58:41;6.60;99.90
7159;DHT22;63175;52.374;13.132;2022-11-14T07:01:11;6.70;99.90
7159;DHT22;63175;52.374;13.132;2022-11-14T07:03:39;6.70;99.90
7159;DHT22;63175;52.374;13.132;2022-11-14T07:06:07;6.70;99.90
7159;DHT22;63175;52.374;13.132;2022-11-14T07:08:34;6.70;99.90
7159;DHT22;63175;52.374;13.132;2022-11-14T07:11:02;6.70;99.90
7159;DHT22;63175;52.374;13.132;2022-11-14T07:13:31;6.70;99.90
7159;DHT22;63175;52.374;13.132;2022-11-14T07:15:58;6.70;99.90
7159;DHT22;63175;52.374;13.132;2022-11-14T07:18:25;6.70;99.90
7159;DHT22;63175;52.374;13.132;2022-11-14T07:20:56;6.80;99.90
7159;DHT22;63175;52.374;13.132;2022-11-14T07:23:24;6.80;99.90
7159;DHT22;63175;52.374;13.132;2022-11-14T07:25:51;6.90;99.90
7159;DHT22;63175;52.374;13.132;2022-11-14T07:28:18;6.90;99.90
7159;DHT22;63175;52.374;13.132;2022-11-14T07:30:46;6.90;99.90
7159;DHT22;63175;52.374;13.132;2022-11-14T07:33:13;7.00;99.90
7159;DHT22;63175;52.374;13.132;2022-11-14T07:35:40;7.00;99.90
7159;DHT22;63175;52.374;13.132;2022-11-14T07:38:07;7.00;99.90
7159;DHT22;63175;52.374;13.132;2022-11-14T07:40:34;7.00;99.90
7159;DHT22;63175;52.374;13.132;2022-11-14T07:43:01;7.00;99.90
7159;DHT22;63175;52.374;13.132;2022-11-14T07:45:28;7.00;99.90
7159;DHT22;63175;52.374;13.132;2022-11-14T07:47:58;7.10;99.90
7159;DHT22;63175;52.374;13.132;2022-11-14T07:50:26;7.10;99.90
7159;DHT22;63175;52.374;13.132;2022-11-14T07:52:54;7.20;99.90
7159;DHT22;63175;52.374;13.132;2022-11-14T07:55:22;7.20;99.90
7159;DHT22;63175;52.374;13.132;2022-11-14T07:57:51;7.30;99.90
7159;DHT22;63175;52.374;13.132;2022-11-14T08:00:18;7.40;99.90
7159;DHT22;63175;52.374;13.132;2022-11-14T08:02:45;7.50;99.90
7159;DHT22;63175;52.374;13.132;2022-11-14T08:05:14;7.60;99.90
7159;DHT22;63175;52.374;13.132;2022-11-14T08:07:41;7.70;99.90
7159;DHT22;63175;52.374;13.132;2022-11-14T08:10:08;7.80;99.90
7159;DHT22;63175;52.374;13.132;2022-11-14T08:12:36;7.90;99.90
7159;DHT22;63175;52.374;13.132;2022-11-14T08:15:05;7.90;99.90
7159;DHT22;63175;52.374;13.132;2022-11-14T08:17:32;8.00;99.90
7159;DHT22;63175;52.374;13.132;2022-11-14T08:19:59;8.10;99.90
7159;DHT22;63175;52.374;13.132;2022-11-14T08:22:27;8.30;99.90
7159;DHT22;63175;52.374;13.132;2022-11-14T08:24:55;8.30;99.90
7159;DHT22;63175;52.374;13.132;2022-11-14T08:27:23;8.50;99.90
7159;DHT22;63175;52.374;13.132;2022-11-14T08:29:50;8.60;99.90
7159;DHT22;63175;52.374;13.132;2022-11-14T08:32:17;8.70;99.90
7159;DHT22;63175;52.374;13.132;2022-11-14T08:34:44;8.80;99.90
7159;DHT22;63175;52.374;13.132;2022-11-14T08:37:11;8.90;99.90
7159;DHT22;63175;52.374;13.132;2022-11-14T08:39:39;9.10;99.90
7159;DHT22;63175;52.374;13.132;2022-11-14T08:42:06;9.10;99.90
7159;DHT22;63175;52.374;13.132;2022-11-14T08:44:33;9.30;99.90
7159;DHT22;63175;52.374;13.132;2022-11-14T08:47:00;9.30;99.90
7159;DHT22;63175;52.374;13.132;2022-11-14T08:49:28;9.50;99.90
7159;DHT22;63175;52.374;13.132;2022-11-14T08:51:55;9.50;99.90
7159;DHT22;63175;52.374;13.132;2022-11-14T08:54:22;9.60;99.90
7159;DHT22;63175;52.374;13.132;2022-11-14T08:56:50;9.70;99.90
7159;DHT22;63175;52.374;13.132;2022-11-14T08:59:17;9.80;99.90
7159;DHT22;63175;52.374;13.132;2022-11-14T09:01:44;9.80;99.90
7159;DHT22;63175;52.374;13.132;2022-11-14T09:04:11;9.90;99.90
7159;DHT22;63175;52.374;13.132;2022-11-14T09:06:38;9.90;99.90
7159;DHT22;63175;52.374;13.132;2022-11-14T09:09:05;10.00;99.90
7159;DHT22;63175;52.374;13.132;2022-11-14T09:11:32;10.00;99.90
7159;DHT22;63175;52.374;13.132;2022-11-14T09:14:00;10.00;99.90
7159;DHT22;63175;52.374;13.132;2022-11-14T09:16:27;10.10;99.90
7159;DHT22;63175;52.374;13.132;2022-11-14T09:18:54;10.20;99.90
7159;DHT22;63175;52.374;13.132;2022-11-14T09:21:21;10.20;99.90
7159;DHT22;63175;52.374;13.132;2022-11-14T09:23:48;10.30;99.90
7159;DHT22;63175;52.374;13.132;2022-11-14T09:26:15;10.50;99.90
7159;DHT22;63175;52.374;13.132;2022-11-14T09:28:43;10.60;99.90
7159;DHT22;63175;52.374;13.132;2022-11-14T09:31:13;10.70;99.90
7159;DHT22;63175;52.374;13.132;2022-11-14T09:33:40;10.70;99.90
7159;DHT22;63175;52.374;13.132;2022-11-14T09:36:09;10.80;99.90
7159;DHT22;63175;52.374;13.132;2022-11-14T09:38:40;11.00;99.90
7159;DHT22;63175;52.374;13.132;2022-11-14T09:41:22;11.10;99.90
7159;DHT22;63175;52.374;13.132;2022-11-14T09:44:13;11.10;99.90
7159;DHT22;63175;52.374;13.132;2022-11-14T09:46:45;11.20;99.90
7159;DHT22;63175;52.374;13.132;2022-11-14T09:49:22;11.30;99.90
7159;DHT22;63175;52.374;13.132;2022-11-14T09:51:55;11.30;99.90
7159;DHT22;63175;52.374;13.132;2022-11-14T09:54:26;11.40;99.90
7159;DHT22;63175;52.374;13.132;2022-11-14T09:56:54;11.60;99.90
7159;DHT22;63175;52.374;13.132;2022-11-14T09:59:21;11.70;99.90
7159;DHT22;63175;52.374;13.132;2022-11-14T10:01:55;11.80;99.90
7159;DHT22;63175;52.374;13.132;2022-11-14T10:04:31;11.90;99.90
7159;DHT22;63175;52.374;13.132;2022-11-14T10:07:15;12.00;99.90
7159;DHT22;63175;52.374;13.132;2022-11-14T10:09:58;12.10;99.90
7159;DHT22;63175;52.374;13.132;2022-11-14T10:12:37;12.20;99.90
7159;DHT22;63175;52.374;13.132;2022-11-14T10:15:16;12.20;99.90
7159;DHT22;63175;52.374;13.132;2022-11-14T10:18:11;12.30;99.90
7159;DHT22;63175;52.374;13.132;2022-11-14T10:20:45;12.40;99.90
7159;DHT22;63175;52.374;13.132;2022-11-14T10:23:32;12.50;99.90
7159;DHT22;63175;52.374;13.132;2022-11-14T10:26:09;12.60;99.90
7159;DHT22;63175;52.374;13.132;2022-11-14T10:28:47;12.70;99.90
7159;DHT22;63175;52.374;13.132;2022-11-14T10:31:22;12.70;99.90
7159;DHT22;63175;52.374;13.132;2022-11-14T10:34:02;12.80;99.90
7159;DHT22;63175;52.374;13.132;2022-11-14T10:36:44;12.80;99.90
7159;DHT22;63175;52.374;13.132;2022-11-14T10:39:16;12.90;99.90
7159;DHT22;63175;52.374;13.132;2022-11-14T10:41:46;12.90;99.90
7159;DHT22;63175;52.374;13.132;2022-11-14T10:44:17;12.90;99.90
7159;DHT22;63175;52.374;13.132;2022-11-14T10:46:49;13.00;99.90
7159;DHT22;63175;52.374;13.132;2022-11-14T10:49:20;13.00;99.90
7159;DHT22;63175;52.374;13.132;2022-11-14T10:51:50;13.00;99.90
7159;DHT22;63175;52.374;13.132;2022-11-14T10:54:23;13.00;99.90
7159;DHT22;63175;52.374;13.132;2022-11-14T10:56:53;13.00;99.90
7159;DHT22;63175;52.374;13.132;2022-11-14T10:59:21;13.10;99.90
7159;DHT22;63175;52.374;13.132;2022-11-14T11:01:53;13.10;99.90
7159;DHT22;63175;52.374;13.132;2022-11-14T11:04:25;13.10;99.90
7159;DHT22;63175;52.374;13.132;2022-11-14T11:06:54;13.10;99.90
7159;DHT22;63175;52.374;13.132;2022-11-14T11:09:23;13.10;99.90
7159;DHT22;63175;52.374;13.132;2022-11-14T11:12:13;13.20;99.90
7159;DHT22;63175;52.374;13.132;2022-11-14T11:14:41;13.20;99.90
7159;DHT22;63175;52.374;13.132;2022-11-14T11:17:20;13.30;99.90
7159;DHT22;63175;52.374;13.132;2022-11-14T11:19:49;13.30;99.90
7159;DHT22;63175;52.374;13.132;2022-11-14T11:22:34;13.30;99.90
7159;DHT22;63175;52.374;13.132;2022-11-14T11:25:01;13.40;99.90
7159;DHT22;63175;52.374;13.132;2022-11-14T11:27:29;13.40;99.90
7159;DHT22;63175;52.374;13.132;2022-11-14T11:30:15;13.50;99.90
7159;DHT22;63175;52.374;13.132;2022-11-14T11:32:43;13.60;99.90
7159;DHT22;63175;52.374;13.132;2022-11-14T11:35:13;13.60;99.90
7159;DHT22;63175;52.374;13.132;2022-11-14T11:37:44;13.60;99.80
7159;DHT22;63175;52.374;13.132;2022-11-14T11:40:16;13.60;99.70
7159;DHT22;63175;52.374;13.132;2022-11-14T11:42:49;13.60;99.70
7159;DHT22;63175;52.374;13.132;2022-11-14T11:45:18;13.60;99.90
7159;DHT22;63175;52.374;13.132;2022-11-14T11:47:52;13.60;99.80
7159;DHT22;63175;52.374;13.132;2022-11-14T11:50:22;13.60;99.30
7159;DHT22;63175;52.374;13.132;2022-11-14T11:52:58;13.60;99.50
7159;DHT22;63175;52.374;13.132;2022-11-14T11:55:31;13.60;99.50
7159;DHT22;63175;52.374;13.132;2022-11-14T11:58:03;13.60;99.40
7159;DHT22;63175;52.374;13.132;2022-11-14T12:00:31;13.50;99.50
7159;DHT22;63175;52.374;13.132;2022-11-14T12:02:59;13.50;99.60
7159;DHT22;63175;52.374;13.132;2022-11-14T12:05:34;13.50;99.90
7159;DHT22;63175;52.374;13.132;2022-11-14T12:08:10;13.50;99.90
7159;DHT22;63175;52.374;13.132;2022-11-14T12:10:41;13.60;99.90
7159;DHT22;63175;52.374;13.132;2022-11-14T12:13:33;13.60;99.60
7159;DHT22;63175;52.374;13.132;2022-11-14T12:16:24;13.70;99.60
7159;DHT22;63175;52.374;13.132;2022-11-14T12:22:09;13.70;99.60
7159;DHT22;63175;52.374;13.132;2022-11-14T12:24:59;13.70;99.80
7159;DHT22;63175;52.374;13.132;2022-11-14T12:27:45;13.70;99.70
7159;DHT22;63175;52.374;13.132;2022-11-14T12:30:18;13.80;99.80
7159;DHT22;63175;52.374;13.132;2022-11-14T12:32:50;13.80;99.90
7159;DHT22;63175;52.374;13.132;2022-11-14T12:35:21;13.80;99.60
7159;DHT22;63175;52.374;13.132;2022-11-14T12:37:53;13.80;99.60
7159;DHT22;63175;52.374;13.132;2022-11-14T12:40:25;13.80;99.50
7159;DHT22;63175;52.374;13.132;2022-11-14T12:42:53;13.80;99.40
7159;DHT22;63175;52.374;13.132;2022-11-14T12:45:57;13.80;99.30
7159;DHT22;63175;52.374;13.132;2022-11-14T12:48:32;13.80;99.30
7159;DHT22;63175;52.374;13.132;2022-11-14T12:51:01;13.70;98.90
7159;DHT22;63175;52.374;13.132;2022-11-14T12:53:43;13.70;99.10
7159;DHT22;63175;52.374;13.132;2022-11-14T12:59:38;13.70;99.10
7159;DHT22;63175;52.374;13.132;2022-11-14T13:05:42;13.60;99.30
7159;DHT22;63175;52.374;13.132;2022-11-14T13:08:26;13.60;99.20
7159;DHT22;63175;52.374;13.132;2022-11-14T13:10:58;13.60;99.30
7159;DHT22;63175;52.374;13.132;2022-11-14T13:13:25;13.60;99.30
7159;DHT22;63175;52.374;13.132;2022-11-14T13:16:22;13.50;99.40
7159;DHT22;63175;52.374;13.132;2022-11-14T13:19:14;13.50;99.50
7159;DHT22;63175;52.374;13.132;2022-11-14T13:22:35;13.50;99.70
7159;DHT22;63175;52.374;13.132;2022-11-14T13:25:17;13.50;99.60
7159;DHT22;63175;52.374;13.132;2022-11-14T13:27:46;13.50;99.70
7159;DHT22;63175;52.374;13.132;2022-11-14T13:30:13;13.50;99.70
7159;DHT22;63175;52.374;13.132;2022-11-14T13:32:58;13.40;99.70
7159;DHT22;63175;52.374;13.132;2022-11-14T13:35:41;13.50;99.70
7159;DHT22;63175;52.374;13.132;2022-11-14T13:38:22;13.50;99.70
7159;DHT22;63175;52.374;13.132;2022-11-14T13:41:10;13.50;99.60
7159;DHT22;63175;52.374;13.132;2022-11-14T13:43:55;13.40;99.60
7159;DHT22;63175;52.374;13.132;2022-11-14T13:46:31;13.40;99.70
7159;DHT22;63175;52.374;13.132;2022-11-14T13:49:12;13.40;99.60
7159;DHT22;63175;52.374;13.132;2022-11-14T13:51:52;13.40;99.60
7159;DHT22;63175;52.374;13.132;2022-11-14T13:54:20;13.30;99.70
7159;DHT22;63175;52.374;13.132;2022-11-14T13:56:54;13.10;99.90
7159;DHT22;63175;52.374;13.132;2022-11-14T13:59:48;13.00;99.90
7159;DHT22;63175;52.374;13.132;2022-11-14T14:02:45;12.90;99.90
7159;DHT22;63175;52.374;13.132;2022-11-14T14:05:25;12.80;99.90
7159;DHT22;63175;52.374;13.132;2022-11-14T14:08:19;12.70;99.90
7159;DHT22;63175;52.374;13.132;2022-11-14T14:10:57;12.70;99.90
7159;DHT22;63175;52.374;13.132;2022-11-14T14:13:36;12.60;99.90
7159;DHT22;63175;52.374;13.132;2022-11-14T14:16:14;12.50;99.90
7159;DHT22;63175;52.374;13.132;2022-11-14T14:18:50;12.50;99.90
7159;DHT22;63175;52.374;13.132;2022-11-14T14:21:32;12.40;99.90
7159;DHT22;63175;52.374;13.132;2022-11-14T14:24:08;12.40;99.90
7159;DHT22;63175;52.374;13.132;2022-11-14T14:26:47;12.40;99.90
7159;DHT22;63175;52.374;13.132;2022-11-14T14:29:23;12.40;99.90
7159;DHT22;63175;52.374;13.132;2022-11-14T14:31:52;12.30;99.90
7159;DHT22;63175;52.374;13.132;2022-11-14T14:34:23;12.30;99.90
7159;DHT22;63175;52.374;13.132;2022-11-14T14:36:52;12.20;99.90
7159;DHT22;63175;52.374;13.132;2022-11-14T14:39:20;12.20;99.90
7159;DHT22;63175;52.374;13.132;2022-11-14T14:41:51;12.10;99.90
7159;DHT22;63175;52.374;13.132;2022-11-14T14:44:24;12.10;99.90
7159;DHT22;63175;52.374;13.132;2022-11-14T14:46:53;12.00;99.90
7159;DHT22;63175;52.374;13.132;2022-11-14T14:49:22;12.00;99.90
7159;DHT22;63175;52.374;13.132;2022-11-14T14:51:50;12.00;99.90
7159;DHT22;63175;52.374;13.132;2022-11-14T14:54:22;12.00;99.90
7159;DHT22;63175;52.374;13.132;2022-11-14T14:56:53;11.90;99.90
7159;DHT22;63175;52.374;13.132;2022-11-14T14:59:22;11.90;99.90
7159;DHT22;63175;52.374;13.132;2022-11-14T15:01:49;11.90;99.90
7159;DHT22;63175;52.374;13.132;2022-11-14T15:04:20;11.90;99.90
7159;DHT22;63175;52.374;13.132;2022-11-14T15:06:47;11.80;99.90
7159;DHT22;63175;52.374;13.132;2022-11-14T15:09:18;11.80;99.90
7159;DHT22;63175;52.374;13.132;2022-11-14T15:11:47;11.70;99.90
7159;DHT22;63175;52.374;13.132;2022-11-14T15:14:17;11.70;99.90
7159;DHT22;63175;52.374;13.132;2022-11-14T15:16:47;11.60;99.90
7159;DHT22;63175;52.374;13.132;2022-11-14T15:19:19;11.60;99.90
7159;DHT22;63175;52.374;13.132;2022-11-14T15:22:01;11.50;99.90
7159;DHT22;63175;52.374;13.132;2022-11-14T15:24:29;11.50;99.90
7159;DHT22;63175;52.374;13.132;2022-11-14T15:26:57;11.50;99.90
7159;DHT22;63175;52.374;13.132;2022-11-14T15:29:25;11.40;99.90
7159;DHT22;63175;52.374;13.132;2022-11-14T15:31:55;11.30;99.90
7159;DHT22;63175;52.374;13.132;2022-11-14T15:34:29;11.30;99.90
7159;DHT22;63175;52.374;13.132;2022-11-14T15:37:19;11.30;99.90
7159;DHT22;63175;52.374;13.132;2022-11-14T15:39:46;11.20;99.90
7159;DHT22;63175;52.374;13.132;2022-11-14T15:42:16;11.10;99.90
7159;DHT22;63175;52.374;13.132;2022-11-14T15:44:43;11.10;99.90
7159;DHT22;63175;52.374;13.132;2022-11-14T15:47:12;11.10;99.90
7159;DHT22;63175;52.374;13.132;2022-11-14T15:49:56;11.00;99.90
7159;DHT22;63175;52.374;13.132;2022-11-14T15:52:26;11.00;99.90
7159;DHT22;63175;52.374;13.132;2022-11-14T15:54:54;10.90;99.90
7159;DHT22;63175;52.374;13.132;2022-11-14T15:57:21;10.90;99.90
7159;DHT22;63175;52.374;13.132;2022-11-14T15:59:47;10.80;99.90
7159;DHT22;63175;52.374;13.132;2022-11-14T16:02:16;10.80;99.90
7159;DHT22;63175;52.374;13.132;2022-11-14T16:04:44;10.80;99.90
7159;DHT22;63175;52.374;13.132;2022-11-14T16:07:14;10.70;99.90
7159;DHT22;63175;52.374;13.132;2022-11-14T16:09:41;10.70;99.90